createdAt,value
2018-09-15T00:00:06.017Z,205
2018-09-15T00:00:18.418Z,196
2018-09-15T00:00:30.819Z,214
2018-09-15T00:00:43.265Z,168
2018-09-15T00:00:55.696Z,207
2018-09-15T00:01:08.126Z,207
2018-09-15T00:01:20.530Z,207
2018-09-15T00:01:32.953Z,198
2018-09-15T00:01:45.366Z,219
2018-09-15T00:01:57.786Z,189
2018-09-15T00:02:10.196Z,188
2018-09-15T00:02:22.606Z,182
2018-09-15T00:02:35.019Z,184
2018-09-15T00:02:47.432Z,183
2018-09-15T00:03:00.141Z,184
2018-09-15T00:03:12.544Z,184
2018-09-15T00:03:25.067Z,208
2018-09-15T00:03:37.465Z,215
2018-09-15T00:03:49.876Z,215
2018-09-15T00:04:02.304Z,191
2018-09-15T00:04:14.705Z,192
2018-09-15T00:04:27.095Z,192
2018-09-15T00:04:39.476Z,192
2018-09-15T00:04:51.866Z,192
2018-09-15T00:05:04.289Z,191
2018-09-15T00:05:16.715Z,191
2018-09-15T00:05:29.159Z,191
2018-09-15T00:05:41.576Z,191
2018-09-15T00:05:54.000Z,191
2018-09-15T00:06:06.418Z,191
2018-09-15T00:06:18.827Z,205
2018-09-15T00:06:31.253Z,217
2018-09-15T00:06:43.669Z,217
2018-09-15T00:06:56.152Z,217
2018-09-15T00:07:08.547Z,217
2018-09-15T00:07:20.977Z,217
2018-09-15T00:07:33.446Z,217
2018-09-15T00:07:45.870Z,217
2018-09-15T00:07:58.281Z,217
2018-09-15T00:08:10.706Z,217
2018-09-15T00:08:23.169Z,217
2018-09-15T00:08:35.576Z,217
2018-09-15T00:08:48.004Z,217
2018-09-15T00:09:00.480Z,215
2018-09-15T00:09:12.978Z,210
2018-09-15T00:09:25.467Z,210
2018-09-15T00:09:37.947Z,210
2018-09-15T00:09:50.418Z,210
2018-09-15T00:10:02.909Z,210
2018-09-15T00:10:15.367Z,210
2018-09-15T00:10:27.957Z,210
2018-09-15T00:10:40.412Z,210
2018-09-15T00:10:52.893Z,210
2018-09-15T00:11:05.367Z,210
2018-09-15T00:11:17.836Z,210
2018-09-15T00:11:30.282Z,210
2018-09-15T00:11:42.734Z,210
2018-09-15T00:11:55.193Z,210
2018-09-15T00:12:07.667Z,210
2018-09-15T00:12:20.152Z,210
2018-09-15T00:12:32.623Z,210
2018-09-15T00:12:45.100Z,210
2018-09-15T00:12:57.584Z,210
2018-09-15T00:13:10.064Z,210
2018-09-15T00:13:22.621Z,210
2018-09-15T00:13:35.095Z,210
2018-09-15T00:13:47.670Z,210
2018-09-15T00:14:00.149Z,216
2018-09-15T00:14:12.623Z,257
2018-09-15T00:14:25.081Z,241
2018-09-15T00:14:37.543Z,241
2018-09-15T00:14:50.022Z,223
2018-09-15T00:15:02.518Z,223
2018-09-15T00:15:14.989Z,223
2018-09-15T00:15:27.440Z,223
2018-09-15T00:15:39.910Z,223
2018-09-15T00:15:52.500Z,202
2018-09-15T00:16:05.124Z,194
2018-09-15T00:16:17.597Z,252
2018-09-15T00:16:30.060Z,252
2018-09-15T00:16:42.522Z,252
2018-09-15T00:16:54.987Z,254
2018-09-15T00:17:07.458Z,230
2018-09-15T00:17:19.913Z,230
2018-09-15T00:17:32.378Z,230
2018-09-15T00:17:44.843Z,229
2018-09-15T00:17:57.408Z,229
2018-09-15T00:18:09.898Z,229
2018-09-15T00:18:22.385Z,229
2018-09-15T00:18:34.885Z,229
2018-09-15T00:18:47.376Z,229
2018-09-15T00:18:59.900Z,229
2018-09-15T00:19:12.367Z,196
2018-09-15T00:19:24.853Z,181
2018-09-15T00:19:37.339Z,181
2018-09-15T00:19:49.858Z,181
2018-09-15T00:20:02.331Z,181
2018-09-15T00:20:14.785Z,195
2018-09-15T00:20:27.247Z,213
2018-09-15T00:20:39.719Z,217
2018-09-15T00:20:52.176Z,251
2018-09-15T00:21:04.691Z,238
2018-09-15T00:21:17.250Z,239
2018-09-15T00:21:29.729Z,239
2018-09-15T00:21:42.183Z,239
2018-09-15T00:21:54.803Z,239
2018-09-15T00:22:07.263Z,239
2018-09-15T00:22:19.759Z,239
2018-09-15T00:22:32.240Z,239
2018-09-15T00:22:44.840Z,239
2018-09-15T00:22:57.655Z,258
2018-09-15T00:23:11.133Z,260
2018-09-15T00:23:24.033Z,260
2018-09-15T00:23:36.511Z,260
2018-09-15T00:23:48.980Z,260
2018-09-15T00:24:01.656Z,260
2018-09-15T00:24:14.130Z,260
2018-09-15T00:24:26.733Z,260
2018-09-15T00:24:39.202Z,260
2018-09-15T00:24:51.657Z,260
2018-09-15T00:25:04.141Z,260
2018-09-15T00:25:16.588Z,260
2018-09-15T00:25:29.060Z,227
2018-09-15T00:25:41.544Z,197
2018-09-15T00:25:54.123Z,187
2018-09-15T00:26:06.614Z,194
2018-09-15T00:26:19.092Z,194
2018-09-15T00:26:31.556Z,194
2018-09-15T00:26:44.012Z,194
2018-09-15T00:26:56.492Z,194
2018-09-15T00:27:08.955Z,194
2018-09-15T00:27:21.422Z,194
2018-09-15T00:27:33.925Z,194
2018-09-15T00:27:46.398Z,194
2018-09-15T00:27:58.859Z,233
2018-09-15T00:28:11.325Z,233
2018-09-15T00:28:23.808Z,233
2018-09-15T00:28:36.275Z,233
2018-09-15T00:28:48.748Z,233
2018-09-15T00:29:01.767Z,233
2018-09-15T00:29:14.234Z,233
2018-09-15T00:29:26.703Z,233
2018-09-15T00:29:39.195Z,233
2018-09-15T00:29:51.692Z,233
2018-09-15T00:30:04.153Z,233
2018-09-15T00:30:16.657Z,233
2018-09-15T00:30:29.133Z,233
2018-09-15T00:30:41.601Z,233
2018-09-15T00:30:54.092Z,233
2018-09-15T00:31:06.585Z,233
2018-09-15T00:31:19.076Z,233
2018-09-15T00:31:31.558Z,233
2018-09-15T00:31:44.064Z,233
2018-09-15T00:31:56.557Z,233
2018-09-15T00:32:09.051Z,233
2018-09-15T00:32:21.571Z,233
2018-09-15T00:32:34.046Z,233
2018-09-15T00:32:46.522Z,233
2018-09-15T00:32:59.120Z,233
2018-09-15T00:33:11.599Z,233
2018-09-15T00:33:24.060Z,180
2018-09-15T00:33:36.544Z,185
2018-09-15T00:33:49.009Z,186
2018-09-15T00:34:01.507Z,209
2018-09-15T00:34:14.013Z,209
2018-09-15T00:34:26.527Z,209
2018-09-15T00:34:38.973Z,209
2018-09-15T00:34:51.455Z,209
2018-09-15T00:35:03.929Z,209
2018-09-15T00:35:16.399Z,209
2018-09-15T00:35:28.866Z,209
2018-09-15T00:35:41.314Z,209
2018-09-15T00:35:53.774Z,209
2018-09-15T00:36:06.237Z,209
2018-09-15T00:36:18.746Z,209
2018-09-15T00:36:31.254Z,209
2018-09-15T00:36:43.895Z,209
2018-09-15T00:36:56.409Z,209
2018-09-15T00:37:08.856Z,209
2018-09-15T00:37:21.325Z,209
2018-09-15T00:37:33.789Z,209
2018-09-15T00:37:46.246Z,209
2018-09-15T00:37:58.704Z,209
2018-09-15T00:38:11.160Z,209
2018-09-15T00:38:23.641Z,209
2018-09-15T00:38:36.103Z,209
2018-09-15T00:38:49.394Z,209
2018-09-15T00:39:03.002Z,209
2018-09-15T00:39:15.824Z,221
2018-09-15T00:39:28.298Z,221
2018-09-15T00:39:40.770Z,221
2018-09-15T00:39:53.230Z,221
2018-09-15T00:40:05.737Z,221
2018-09-15T00:40:18.299Z,221
2018-09-15T00:40:30.775Z,221
2018-09-15T00:40:43.254Z,221
2018-09-15T00:40:55.708Z,221
2018-09-15T00:41:08.181Z,221
2018-09-15T00:41:20.625Z,221
2018-09-15T00:41:33.070Z,221
2018-09-15T00:41:45.951Z,221
2018-09-15T00:41:59.457Z,221
2018-09-15T00:42:11.880Z,221
2018-09-15T00:42:24.292Z,221
2018-09-15T00:42:36.699Z,221
2018-09-15T00:42:49.122Z,221
2018-09-15T00:43:01.568Z,221
2018-09-15T00:43:13.998Z,221
2018-09-15T00:43:26.566Z,221
2018-09-15T00:43:39.291Z,221
2018-09-15T00:43:51.947Z,221
2018-09-15T00:44:04.399Z,221
2018-09-15T00:44:16.833Z,221
2018-09-15T00:44:29.449Z,221
2018-09-15T00:44:41.854Z,221
2018-09-15T00:44:54.271Z,221
2018-09-15T00:45:06.681Z,221
2018-09-15T00:45:19.083Z,221
2018-09-15T00:45:31.525Z,221
2018-09-15T00:45:43.930Z,221
2018-09-15T00:45:56.409Z,221
2018-09-15T00:46:08.867Z,221
2018-09-15T00:46:21.283Z,221
2018-09-15T00:46:33.689Z,221
2018-09-15T00:46:46.181Z,221
2018-09-15T00:46:58.593Z,221
2018-09-15T00:47:11.028Z,221
2018-09-15T00:47:23.452Z,221
2018-09-15T00:47:35.893Z,221
2018-09-15T00:47:48.358Z,221
2018-09-15T00:48:00.756Z,221
2018-09-15T00:48:13.170Z,221
2018-09-15T00:48:25.588Z,221
2018-09-15T00:48:38.023Z,221
2018-09-15T00:48:50.436Z,221
2018-09-15T00:49:03.023Z,221
2018-09-15T00:49:15.607Z,221
2018-09-15T00:49:28.025Z,221
2018-09-15T00:49:40.425Z,221
2018-09-15T00:49:52.829Z,232
2018-09-15T00:50:05.259Z,232
2018-09-15T00:50:17.671Z,232
2018-09-15T00:50:30.085Z,232
2018-09-15T00:50:42.500Z,232
2018-09-15T00:50:54.924Z,232
2018-09-15T00:51:07.327Z,232
2018-09-15T00:51:19.739Z,232
2018-09-15T00:51:32.160Z,232
2018-09-15T00:51:44.559Z,232
2018-09-15T00:51:56.967Z,232
2018-09-15T00:52:09.397Z,232
2018-09-15T00:52:21.839Z,232
2018-09-15T00:52:34.240Z,232
2018-09-15T00:52:46.658Z,232
2018-09-15T00:52:59.101Z,232
2018-09-15T00:53:11.547Z,232
2018-09-15T00:53:23.953Z,232
2018-09-15T00:53:36.372Z,232
2018-09-15T00:53:48.765Z,232
2018-09-15T00:54:01.169Z,232
2018-09-15T00:54:14.327Z,232
2018-09-15T00:54:26.756Z,232
2018-09-15T00:54:39.154Z,232
2018-09-15T00:54:51.571Z,232
2018-09-15T00:55:04.038Z,232
2018-09-15T00:55:16.491Z,232
2018-09-15T00:55:28.914Z,232
2018-09-15T00:55:41.330Z,232
2018-09-15T00:55:53.795Z,232
2018-09-15T00:56:06.224Z,232
2018-09-15T00:56:18.656Z,232
2018-09-15T00:56:31.047Z,232
2018-09-15T00:56:43.440Z,232
2018-09-15T00:56:55.845Z,232
2018-09-15T00:57:08.242Z,232
2018-09-15T00:57:20.635Z,245
2018-09-15T00:57:33.037Z,246
2018-09-15T00:57:45.431Z,255
2018-09-15T00:57:57.827Z,255
2018-09-15T00:58:10.223Z,255
2018-09-15T00:58:22.618Z,255
2018-09-15T00:58:35.120Z,255
2018-09-15T00:58:47.527Z,255
2018-09-15T00:58:59.934Z,255
2018-09-15T00:59:12.327Z,255
2018-09-15T00:59:24.741Z,255
2018-09-15T00:59:37.129Z,255
2018-09-15T00:59:49.508Z,255
2018-09-15T01:00:01.959Z,255
2018-09-15T01:00:14.371Z,255
2018-09-15T01:00:26.777Z,255
2018-09-15T01:00:39.201Z,255
2018-09-15T01:00:51.620Z,255
2018-09-15T01:01:04.036Z,255
2018-09-15T01:01:16.517Z,197
2018-09-15T01:01:28.925Z,198
2018-09-15T01:01:41.351Z,198
2018-09-15T01:01:53.781Z,198
2018-09-15T01:02:06.192Z,198
2018-09-15T01:02:18.572Z,198
2018-09-15T01:02:30.956Z,198
2018-09-15T01:02:43.341Z,198
2018-09-15T01:02:55.758Z,198
2018-09-15T01:03:08.160Z,198
2018-09-15T01:03:20.641Z,198
2018-09-15T01:03:33.043Z,198
2018-09-15T01:03:45.455Z,198
2018-09-15T01:03:57.855Z,198
2018-09-15T01:04:10.278Z,198
2018-09-15T01:04:22.687Z,198
2018-09-15T01:04:35.164Z,198
2018-09-15T01:04:47.584Z,198
2018-09-15T01:05:00.045Z,198
2018-09-15T01:05:12.455Z,198
2018-09-15T01:05:24.874Z,198
2018-09-15T01:05:37.278Z,198
2018-09-15T01:05:49.684Z,198
2018-09-15T01:06:02.083Z,198
2018-09-15T01:06:14.474Z,198
2018-09-15T01:06:26.876Z,198
2018-09-15T01:06:39.278Z,198
2018-09-15T01:06:51.677Z,198
2018-09-15T01:07:04.152Z,198
2018-09-15T01:07:16.539Z,198
2018-09-15T01:07:28.940Z,198
2018-09-15T01:07:41.402Z,198
2018-09-15T01:07:53.808Z,198
2018-09-15T01:08:06.205Z,198
2018-09-15T01:08:18.630Z,198
2018-09-15T01:08:31.177Z,198
2018-09-15T01:08:43.570Z,198
2018-09-15T01:08:55.993Z,198
2018-09-15T01:09:08.396Z,198
2018-09-15T01:09:20.790Z,215
2018-09-15T01:09:33.200Z,215
2018-09-15T01:09:45.629Z,215
2018-09-15T01:09:58.042Z,215
2018-09-15T01:10:10.456Z,215
2018-09-15T01:10:22.986Z,215
2018-09-15T01:10:35.393Z,215
2018-09-15T01:10:47.814Z,215
2018-09-15T01:11:00.216Z,215
2018-09-15T01:11:12.610Z,215
2018-09-15T01:11:24.998Z,215
2018-09-15T01:11:37.427Z,215
2018-09-15T01:11:49.816Z,215
2018-09-15T01:12:02.234Z,215
2018-09-15T01:12:14.731Z,215
2018-09-15T01:12:27.197Z,215
2018-09-15T01:12:39.623Z,215
2018-09-15T01:12:52.026Z,215
2018-09-15T01:13:04.431Z,215
2018-09-15T01:13:16.964Z,215
2018-09-15T01:13:29.368Z,215
2018-09-15T01:13:41.969Z,215
2018-09-15T01:13:54.639Z,215
2018-09-15T01:14:08.405Z,215
2018-09-15T01:14:23.180Z,215
2018-09-15T01:14:36.399Z,215
2018-09-15T01:14:48.807Z,215
2018-09-15T01:15:01.201Z,215
2018-09-15T01:15:13.743Z,215
2018-09-15T01:15:26.158Z,215
2018-09-15T01:15:38.558Z,215
2018-09-15T01:15:50.946Z,215
2018-09-15T01:16:03.467Z,215
2018-09-15T01:16:15.876Z,215
2018-09-15T01:16:28.300Z,215
2018-09-15T01:16:40.698Z,215
2018-09-15T01:16:53.098Z,215
2018-09-15T01:17:06.165Z,215
2018-09-15T01:17:18.587Z,215
2018-09-15T01:17:30.990Z,215
2018-09-15T01:17:43.389Z,215
2018-09-15T01:17:55.814Z,215
2018-09-15T01:18:08.229Z,215
2018-09-15T01:18:20.631Z,215
2018-09-15T01:18:33.023Z,215
2018-09-15T01:18:45.439Z,215
2018-09-15T01:18:57.835Z,215
2018-09-15T01:19:10.260Z,215
2018-09-15T01:19:22.664Z,215
2018-09-15T01:19:35.212Z,215
2018-09-15T01:19:47.618Z,215
2018-09-15T01:20:00.571Z,215
2018-09-15T01:20:14.487Z,215
2018-09-15T01:20:26.904Z,215
2018-09-15T01:20:39.315Z,215
2018-09-15T01:20:51.732Z,215
2018-09-15T01:21:04.136Z,215
2018-09-15T01:21:16.659Z,215
2018-09-15T01:21:29.097Z,215
2018-09-15T01:21:41.529Z,215
2018-09-15T01:21:54.084Z,215
2018-09-15T01:22:06.539Z,215
2018-09-15T01:22:18.941Z,215
2018-09-15T01:22:31.339Z,215
2018-09-15T01:22:43.767Z,215
2018-09-15T01:22:56.411Z,215
2018-09-15T01:23:08.861Z,215
2018-09-15T01:23:21.387Z,215
2018-09-15T01:23:33.791Z,215
2018-09-15T01:23:46.206Z,215
2018-09-15T01:23:58.613Z,215
2018-09-15T01:24:11.114Z,215
2018-09-15T01:24:23.661Z,215
2018-09-15T01:24:36.072Z,215
2018-09-15T01:24:48.488Z,215
2018-09-15T01:25:00.904Z,215
2018-09-15T01:25:13.369Z,215
2018-09-15T01:25:25.798Z,215
2018-09-15T01:25:38.192Z,215
2018-09-15T01:25:50.648Z,215
2018-09-15T01:26:03.800Z,215
2018-09-15T01:26:16.984Z,215
2018-09-15T01:26:29.407Z,215
2018-09-15T01:26:41.805Z,215
2018-09-15T01:26:54.203Z,215
2018-09-15T01:27:06.608Z,215
2018-09-15T01:27:19.043Z,215
2018-09-15T01:27:31.437Z,215
2018-09-15T01:27:43.881Z,215
2018-09-15T01:27:56.292Z,215
2018-09-15T01:28:08.706Z,215
2018-09-15T01:28:21.141Z,215
2018-09-15T01:28:33.536Z,215
2018-09-15T01:28:45.927Z,215
2018-09-15T01:28:58.329Z,215
2018-09-15T01:29:10.723Z,215
2018-09-15T01:29:23.402Z,215
2018-09-15T01:29:35.893Z,215
2018-09-15T01:29:48.311Z,215
2018-09-15T01:30:00.710Z,215
2018-09-15T01:30:13.130Z,215
2018-09-15T01:30:25.533Z,215
2018-09-15T01:30:37.928Z,215
2018-09-15T01:30:50.351Z,215
2018-09-15T01:31:02.755Z,215
2018-09-15T01:31:15.159Z,215
2018-09-15T01:31:27.570Z,215
2018-09-15T01:31:39.974Z,215
2018-09-15T01:31:52.381Z,215
2018-09-15T01:32:04.793Z,215
2018-09-15T01:32:17.192Z,215
2018-09-15T01:32:29.594Z,215
2018-09-15T01:32:42.058Z,215
2018-09-15T01:32:54.487Z,215
2018-09-15T01:33:06.942Z,215
2018-09-15T01:33:19.369Z,215
2018-09-15T01:33:31.777Z,215
2018-09-15T01:33:44.252Z,215
2018-09-15T01:33:56.669Z,215
2018-09-15T01:34:09.088Z,215
2018-09-15T01:34:21.495Z,215
2018-09-15T01:34:33.892Z,215
2018-09-15T01:34:46.299Z,215
2018-09-15T01:34:58.710Z,215
2018-09-15T01:35:11.137Z,215
2018-09-15T01:35:23.568Z,215
2018-09-15T01:35:36.369Z,215
2018-09-15T01:35:48.769Z,215
2018-09-15T01:36:01.174Z,215
2018-09-15T01:36:13.588Z,215
2018-09-15T01:36:25.984Z,215
2018-09-15T01:36:38.408Z,215
2018-09-15T01:36:50.819Z,215
2018-09-15T01:37:03.218Z,215
2018-09-15T01:37:15.632Z,215
2018-09-15T01:37:28.016Z,215
2018-09-15T01:37:40.484Z,215
2018-09-15T01:37:52.887Z,215
2018-09-15T01:38:05.313Z,215
2018-09-15T01:38:17.702Z,215
2018-09-15T01:38:30.105Z,215
2018-09-15T01:38:42.497Z,215
2018-09-15T01:38:54.889Z,215
2018-09-15T01:39:07.564Z,215
2018-09-15T01:39:19.983Z,215
2018-09-15T01:39:32.373Z,215
2018-09-15T01:39:44.773Z,215
2018-09-15T01:39:57.187Z,215
2018-09-15T01:40:09.599Z,215
2018-09-15T01:40:22.068Z,215
2018-09-15T01:40:34.737Z,215
2018-09-15T01:40:47.134Z,215
2018-09-15T01:40:59.527Z,215
2018-09-15T01:41:11.928Z,215
2018-09-15T01:41:24.326Z,215
2018-09-15T01:41:36.741Z,215
2018-09-15T01:41:49.146Z,215
2018-09-15T01:42:01.836Z,215
2018-09-15T01:42:14.239Z,215
2018-09-15T01:42:26.632Z,215
2018-09-15T01:42:39.092Z,215
2018-09-15T01:42:51.514Z,215
2018-09-15T01:43:03.953Z,215
2018-09-15T01:43:16.369Z,215
2018-09-15T01:43:28.813Z,215
2018-09-15T01:43:41.241Z,215
2018-09-15T01:43:53.678Z,215
2018-09-15T01:44:06.078Z,215
2018-09-15T01:44:18.578Z,215
2018-09-15T01:44:30.987Z,215
2018-09-15T01:44:43.377Z,215
2018-09-15T01:44:55.778Z,215
2018-09-15T01:45:08.210Z,215
2018-09-15T01:45:20.617Z,215
2018-09-15T01:45:33.013Z,215
2018-09-15T01:45:45.408Z,215
2018-09-15T01:45:57.804Z,215
2018-09-15T01:46:10.210Z,215
2018-09-15T01:46:22.592Z,215
2018-09-15T01:46:35.036Z,215
2018-09-15T01:46:47.437Z,215
2018-09-15T01:46:59.985Z,215
2018-09-15T01:47:12.403Z,215
2018-09-15T01:47:24.847Z,215
2018-09-15T01:47:37.259Z,215
2018-09-15T01:47:49.664Z,215
2018-09-15T01:48:02.063Z,215
2018-09-15T01:48:14.484Z,215
2018-09-15T01:48:26.908Z,215
2018-09-15T01:48:39.319Z,215
2018-09-15T01:48:51.716Z,215
2018-09-15T01:49:04.249Z,215
2018-09-15T01:49:16.770Z,215
2018-09-15T01:49:29.179Z,215
2018-09-15T01:49:41.583Z,215
2018-09-15T01:49:53.997Z,215
2018-09-15T01:50:06.403Z,215
2018-09-15T01:50:18.808Z,215
2018-09-15T01:50:31.225Z,215
2018-09-15T01:50:43.617Z,215
2018-09-15T01:50:56.027Z,215
2018-09-15T01:51:08.486Z,215
2018-09-15T01:51:20.863Z,215
2018-09-15T01:51:33.252Z,215
2018-09-15T01:51:45.638Z,215
2018-09-15T01:51:58.091Z,215
2018-09-15T01:52:10.480Z,215
2018-09-15T01:52:22.876Z,215
2018-09-15T01:52:35.260Z,215
2018-09-15T01:52:47.654Z,215
2018-09-15T01:53:00.136Z,215
2018-09-15T01:53:12.585Z,215
2018-09-15T01:53:24.988Z,215
2018-09-15T01:53:37.386Z,215
2018-09-15T01:53:49.786Z,215
2018-09-15T01:54:02.198Z,215
2018-09-15T01:54:14.678Z,215
2018-09-15T01:54:27.088Z,215
2018-09-15T01:54:39.479Z,215
2018-09-15T01:54:51.873Z,215
2018-09-15T01:55:04.275Z,215
2018-09-15T01:55:16.721Z,215
2018-09-15T01:55:29.185Z,215
2018-09-15T01:55:41.715Z,215
2018-09-15T01:55:54.533Z,215
2018-09-15T01:56:06.951Z,215
2018-09-15T01:56:19.373Z,215
2018-09-15T01:56:31.787Z,215
2018-09-15T01:56:44.179Z,215
2018-09-15T01:56:56.590Z,215
2018-09-15T01:57:09.012Z,215
2018-09-15T01:57:21.422Z,215
2018-09-15T01:57:34.448Z,215
2018-09-15T01:57:47.573Z,215
2018-09-15T01:57:59.986Z,215
2018-09-15T01:58:12.418Z,215
2018-09-15T01:58:24.827Z,215
2018-09-15T01:58:37.214Z,215
2018-09-15T01:58:49.638Z,215
2018-09-15T01:59:02.045Z,215
2018-09-15T01:59:14.607Z,215
2018-09-15T01:59:27.007Z,215
2018-09-15T01:59:39.431Z,215
2018-09-15T01:59:51.841Z,215
2018-09-15T02:00:04.256Z,215
2018-09-15T02:00:16.694Z,215
2018-09-15T02:00:29.122Z,215
2018-09-15T02:00:41.561Z,215
2018-09-15T02:00:53.993Z,215
2018-09-15T02:01:06.435Z,215
2018-09-15T02:01:18.864Z,215
2018-09-15T02:01:31.284Z,215
2018-09-15T02:01:43.698Z,215
2018-09-15T02:01:56.096Z,215
2018-09-15T02:02:08.495Z,215
2018-09-15T02:02:20.893Z,215
2018-09-15T02:02:33.300Z,215
2018-09-15T02:02:45.705Z,215
2018-09-15T02:02:58.123Z,215
2018-09-15T02:03:10.551Z,215
2018-09-15T02:03:23.122Z,215
2018-09-15T02:03:35.527Z,215
2018-09-15T02:03:47.971Z,215
2018-09-15T02:04:00.370Z,215
2018-09-15T02:04:12.786Z,215
2018-09-15T02:04:25.243Z,215
2018-09-15T02:04:37.756Z,215
2018-09-15T02:04:50.179Z,215
2018-09-15T02:05:02.590Z,215
2018-09-15T02:05:15.010Z,215
2018-09-15T02:05:27.432Z,215
2018-09-15T02:05:39.860Z,215
2018-09-15T02:05:52.309Z,215
2018-09-15T02:06:04.700Z,215
2018-09-15T02:06:17.090Z,215
2018-09-15T02:06:29.511Z,215
2018-09-15T02:06:41.918Z,215
2018-09-15T02:06:54.319Z,215
2018-09-15T02:07:06.716Z,215
2018-09-15T02:07:19.142Z,215
2018-09-15T02:07:31.540Z,215
2018-09-15T02:07:43.956Z,215
2018-09-15T02:07:56.368Z,215
2018-09-15T02:08:08.777Z,215
2018-09-15T02:08:21.193Z,215
2018-09-15T02:08:33.624Z,215
2018-09-15T02:08:46.054Z,215
2018-09-15T02:08:58.480Z,215
2018-09-15T02:09:10.889Z,215
2018-09-15T02:09:23.329Z,215
2018-09-15T02:09:35.739Z,215
2018-09-15T02:09:48.189Z,215
2018-09-15T02:10:00.600Z,215
2018-09-15T02:10:13.024Z,215
2018-09-15T02:10:26.152Z,215
2018-09-15T02:10:38.556Z,215
2018-09-15T02:10:50.956Z,215
2018-09-15T02:11:03.349Z,215
2018-09-15T02:11:15.765Z,215
2018-09-15T02:11:28.190Z,215
2018-09-15T02:11:40.592Z,215
2018-09-15T02:11:53.000Z,215
2018-09-15T02:12:05.418Z,215
2018-09-15T02:12:17.835Z,215
2018-09-15T02:12:30.257Z,215
2018-09-15T02:12:42.709Z,215
2018-09-15T02:12:55.139Z,215
2018-09-15T02:13:07.559Z,215
2018-09-15T02:13:20.194Z,215
2018-09-15T02:13:32.621Z,215
2018-09-15T02:13:45.130Z,215
2018-09-15T02:13:57.559Z,215
2018-09-15T02:14:09.969Z,215
2018-09-15T02:14:22.393Z,215
2018-09-15T02:14:34.831Z,215
2018-09-15T02:14:47.244Z,215
2018-09-15T02:14:59.646Z,215
2018-09-15T02:15:12.064Z,215
2018-09-15T02:15:24.467Z,215
2018-09-15T02:15:37.051Z,215
2018-09-15T02:15:49.525Z,215
2018-09-15T02:16:02.053Z,215
2018-09-15T02:16:14.456Z,215
2018-09-15T02:16:26.860Z,215
2018-09-15T02:16:39.259Z,215
2018-09-15T02:16:51.687Z,215
2018-09-15T02:17:04.287Z,215
2018-09-15T02:17:16.693Z,215
2018-09-15T02:17:29.118Z,215
2018-09-15T02:17:41.510Z,215
2018-09-15T02:17:53.934Z,215
2018-09-15T02:18:06.381Z,215
2018-09-15T02:18:18.791Z,215
2018-09-15T02:18:31.187Z,215
2018-09-15T02:18:43.586Z,215
2018-09-15T02:18:55.993Z,215
2018-09-15T02:19:08.419Z,215
2018-09-15T02:19:20.827Z,215
2018-09-15T02:19:33.228Z,215
2018-09-15T02:19:45.663Z,215
2018-09-15T02:19:58.075Z,215
2018-09-15T02:20:10.496Z,215
2018-09-15T02:20:22.906Z,215
2018-09-15T02:20:35.392Z,215
2018-09-15T02:20:47.828Z,215
2018-09-15T02:21:00.222Z,215
2018-09-15T02:21:12.630Z,215
2018-09-15T02:21:25.197Z,215
2018-09-15T02:21:37.609Z,215
2018-09-15T02:21:50.006Z,215
2018-09-15T02:22:02.559Z,215
2018-09-15T02:22:14.958Z,215
2018-09-15T02:22:27.561Z,215
2018-09-15T02:22:40.995Z,215
2018-09-15T02:22:54.470Z,215
2018-09-15T02:23:07.961Z,215
2018-09-15T02:23:20.539Z,215
2018-09-15T02:23:32.946Z,215
2018-09-15T02:23:45.354Z,215
2018-09-15T02:23:57.745Z,215
2018-09-15T02:24:10.295Z,215
2018-09-15T02:24:22.837Z,215
2018-09-15T02:24:35.231Z,215
2018-09-15T02:24:47.643Z,215
2018-09-15T02:25:00.068Z,215
2018-09-15T02:25:12.474Z,215
2018-09-15T02:25:24.865Z,215
2018-09-15T02:25:37.257Z,215
2018-09-15T02:25:49.662Z,215
2018-09-15T02:26:02.057Z,215
2018-09-15T02:26:14.479Z,215
2018-09-15T02:26:26.886Z,215
2018-09-15T02:26:39.305Z,215
2018-09-15T02:26:51.732Z,215
2018-09-15T02:27:04.174Z,215
2018-09-15T02:27:16.571Z,215
2018-09-15T02:27:28.963Z,215
2018-09-15T02:27:41.384Z,215
2018-09-15T02:27:53.844Z,215
2018-09-15T02:28:06.417Z,215
2018-09-15T02:28:18.843Z,215
2018-09-15T02:28:31.230Z,217
2018-09-15T02:28:43.638Z,217
2018-09-15T02:28:56.446Z,217
2018-09-15T02:29:10.038Z,217
2018-09-15T02:29:22.440Z,223
2018-09-15T02:29:34.874Z,223
2018-09-15T02:29:47.274Z,225
2018-09-15T02:29:59.690Z,225
2018-09-15T02:30:12.275Z,225
2018-09-15T02:30:24.708Z,239
2018-09-15T02:30:37.151Z,242
2018-09-15T02:30:49.571Z,242
2018-09-15T02:31:01.973Z,246
2018-09-15T02:31:14.382Z,233
2018-09-15T02:31:26.799Z,233
2018-09-15T02:31:39.221Z,230
2018-09-15T02:31:51.653Z,230
2018-09-15T02:32:04.085Z,230
2018-09-15T02:32:16.537Z,230
2018-09-15T02:32:28.936Z,230
2018-09-15T02:32:41.368Z,230
2018-09-15T02:32:53.779Z,230
2018-09-15T02:33:06.217Z,230
2018-09-15T02:33:18.609Z,230
2018-09-15T02:33:31.012Z,230
2018-09-15T02:33:43.705Z,230
2018-09-15T02:33:56.109Z,230
2018-09-15T02:34:08.547Z,230
2018-09-15T02:34:20.963Z,230
2018-09-15T02:34:33.375Z,230
2018-09-15T02:34:45.789Z,230
2018-09-15T02:34:58.204Z,230
2018-09-15T02:35:10.616Z,230
2018-09-15T02:35:23.134Z,230
2018-09-15T02:35:35.547Z,230
2018-09-15T02:35:47.963Z,230
2018-09-15T02:36:00.398Z,221
2018-09-15T02:36:12.822Z,221
2018-09-15T02:36:25.293Z,221
2018-09-15T02:36:37.737Z,221
2018-09-15T02:36:50.217Z,221
2018-09-15T02:37:02.609Z,221
2018-09-15T02:37:15.020Z,221
2018-09-15T02:37:27.476Z,221
2018-09-15T02:37:39.898Z,221
2018-09-15T02:37:52.327Z,221
2018-09-15T02:38:04.785Z,221
2018-09-15T02:38:17.230Z,221
2018-09-15T02:38:29.666Z,221
2018-09-15T02:38:42.137Z,221
2018-09-15T02:38:54.564Z,221
2018-09-15T02:39:06.974Z,221
2018-09-15T02:39:19.755Z,221
2018-09-15T02:39:32.174Z,221
2018-09-15T02:39:44.599Z,221
2018-09-15T02:39:57.024Z,221
2018-09-15T02:40:09.483Z,221
2018-09-15T02:40:22.146Z,220
2018-09-15T02:40:34.552Z,220
2018-09-15T02:40:46.951Z,220
2018-09-15T02:40:59.386Z,220
2018-09-15T02:41:11.815Z,220
2018-09-15T02:41:24.220Z,220
2018-09-15T02:41:36.632Z,220
2018-09-15T02:41:49.036Z,220
2018-09-15T02:42:01.467Z,220
2018-09-15T02:42:13.883Z,220
2018-09-15T02:42:26.295Z,220
2018-09-15T02:42:38.772Z,220
2018-09-15T02:42:51.174Z,211
2018-09-15T02:43:03.582Z,211
2018-09-15T02:43:16.033Z,211
2018-09-15T02:43:28.451Z,211
2018-09-15T02:43:40.870Z,211
2018-09-15T02:43:53.338Z,211
2018-09-15T02:44:05.755Z,211
2018-09-15T02:44:18.172Z,211
2018-09-15T02:44:30.626Z,211
2018-09-15T02:44:43.022Z,211
2018-09-15T02:44:55.436Z,211
2018-09-15T02:45:07.867Z,211
2018-09-15T02:45:20.357Z,211
2018-09-15T02:45:32.776Z,211
2018-09-15T02:45:45.195Z,211
2018-09-15T02:45:57.639Z,211
2018-09-15T02:46:10.065Z,211
2018-09-15T02:46:22.490Z,211
2018-09-15T02:46:34.912Z,211
2018-09-15T02:46:47.326Z,211
2018-09-15T02:46:59.722Z,211
2018-09-15T02:47:12.132Z,211
2018-09-15T02:47:24.538Z,211
2018-09-15T02:47:36.961Z,211
2018-09-15T02:47:49.360Z,211
2018-09-15T02:48:01.803Z,211
2018-09-15T02:48:14.246Z,211
2018-09-15T02:48:26.666Z,212
2018-09-15T02:48:39.071Z,211
2018-09-15T02:48:51.475Z,212
2018-09-15T02:49:03.883Z,211
2018-09-15T02:49:16.662Z,212
2018-09-15T02:49:29.069Z,211
2018-09-15T02:49:41.490Z,211
2018-09-15T02:49:53.897Z,211
2018-09-15T02:50:06.313Z,211
2018-09-15T02:50:18.763Z,211
2018-09-15T02:50:31.171Z,211
2018-09-15T02:50:43.602Z,211
2018-09-15T02:50:55.997Z,211
2018-09-15T02:51:08.440Z,212
2018-09-15T02:51:20.868Z,212
2018-09-15T02:51:33.284Z,212
2018-09-15T02:51:45.767Z,212